sensor_id;sensor_type;location;lat;lon;timestamp;P1;durP1;ratioP1;P2;durP2;ratioP2
20391;SDS011;10355;53.688;10.078;2023-12-29T00:00:55;5.30;;;1.08;;
20391;SDS011;10355;53.688;10.078;2023-12-29T00:03:40;5.20;;;1.20;;
20391;SDS011;10355;53.688;10.078;2023-12-29T00:06:22;5.22;;;1.13;;
20391;SDS011;10355;53.688;10.078;2023-12-29T00:09:05;4.70;;;1.30;;
20391;SDS011;10355;53.688;10.078;2023-12-29T00:11:49;3.10;;;1.10;;
20391;SDS011;10355;53.688;10.078;2023-12-29T00:14:32;3.35;;;1.02;;
20391;SDS011;10355;53.688;10.078;2023-12-29T00:17:15;6.15;;;1.17;;
20391;SDS011;10355;53.688;10.078;2023-12-29T00:19:59;3.25;;;1.10;;
20391;SDS011;10355;53.688;10.078;2023-12-29T00:22:42;3.45;;;1.23;;
20391;SDS011;10355;53.688;10.078;2023-12-29T00:25:25;3.42;;;0.80;;
20391;SDS011;10355;53.688;10.078;2023-12-29T00:28:08;3.72;;;1.05;;
20391;SDS011;10355;53.688;10.078;2023-12-29T00:30:51;5.97;;;1.23;;
20391;SDS011;10355;53.688;10.078;2023-12-29T00:33:43;5.22;;;1.13;;
20391;SDS011;10355;53.688;10.078;2023-12-29T00:36:27;6.60;;;1.23;;
20391;SDS011;10355;53.688;10.078;2023-12-29T00:39:10;4.30;;;1.00;;
20391;SDS011;10355;53.688;10.078;2023-12-29T00:41:53;3.83;;;1.02;;
20391;SDS011;10355;53.688;10.078;2023-12-29T00:44:36;2.75;;;1.02;;
20391;SDS011;10355;53.688;10.078;2023-12-29T00:47:19;4.00;;;1.10;;
20391;SDS011;10355;53.688;10.078;2023-12-29T00:50:05;6.00;;;1.38;;
20391;SDS011;10355;53.688;10.078;2023-12-29T00:52:49;5.07;;;0.93;;
20391;SDS011;10355;53.688;10.078;2023-12-29T00:55:32;4.50;;;1.02;;
20391;SDS011;10355;53.688;10.078;2023-12-29T00:58:15;6.20;;;1.23;;
20391;SDS011;10355;53.688;10.078;2023-12-29T01:00:58;2.67;;;1.02;;
20391;SDS011;10355;53.688;10.078;2023-12-29T01:03:40;1.52;;;0.82;;
20391;SDS011;10355;53.688;10.078;2023-12-29T01:06:24;4.78;;;1.15;;
20391;SDS011;10355;53.688;10.078;2023-12-29T01:09:08;4.00;;;1.17;;
20391;SDS011;10355;53.688;10.078;2023-12-29T01:11:51;7.88;;;1.42;;
20391;SDS011;10355;53.688;10.078;2023-12-29T01:14:34;6.70;;;0.90;;
20391;SDS011;10355;53.688;10.078;2023-12-29T01:17:17;4.45;;;1.20;;
20391;SDS011;10355;53.688;10.078;2023-12-29T01:20:00;3.90;;;1.00;;
20391;SDS011;10355;53.688;10.078;2023-12-29T01:22:45;5.85;;;1.30;;
20391;SDS011;10355;53.688;10.078;2023-12-29T01:25:29;4.45;;;1.10;;
20391;SDS011;10355;53.688;10.078;2023-12-29T01:28:11;6.68;;;1.15;;
20391;SDS011;10355;53.688;10.078;2023-12-29T01:30:54;4.97;;;1.17;;
20391;SDS011;10355;53.688;10.078;2023-12-29T01:33:38;2.97;;;0.90;;
20391;SDS011;10355;53.688;10.078;2023-12-29T01:36:21;3.03;;;1.10;;
20391;SDS011;10355;53.688;10.078;2023-12-29T01:39:06;4.05;;;1.30;;
20391;SDS011;10355;53.688;10.078;2023-12-29T01:41:50;5.63;;;1.10;;
20391;SDS011;10355;53.688;10.078;2023-12-29T01:44:33;3.53;;;1.27;;
20391;SDS011;10355;53.688;10.078;2023-12-29T01:47:15;5.75;;;1.67;;
20391;SDS011;10355;53.688;10.078;2023-12-29T01:49:59;4.30;;;1.25;;
20391;SDS011;10355;53.688;10.078;2023-12-29T01:52:41;4.68;;;1.17;;
20391;SDS011;10355;53.688;10.078;2023-12-29T01:55:25;3.85;;;0.90;;
20391;SDS011;10355;53.688;10.078;2023-12-29T01:58:09;2.60;;;0.95;;
20391;SDS011;10355;53.688;10.078;2023-12-29T02:00:53;4.30;;;1.20;;
20391;SDS011;10355;53.688;10.078;2023-12-29T02:03:36;5.75;;;1.20;;
20391;SDS011;10355;53.688;10.078;2023-12-29T02:06:19;2.55;;;1.08;;
20391;SDS011;10355;53.688;10.078;2023-12-29T02:09:02;7.47;;;1.42;;
20391;SDS011;10355;53.688;10.078;2023-12-29T02:11:46;3.63;;;0.98;;
20391;SDS011;10355;53.688;10.078;2023-12-29T02:14:30;4.10;;;1.08;;
20391;SDS011;10355;53.688;10.078;2023-12-29T02:17:15;4.53;;;0.98;;
20391;SDS011;10355;53.688;10.078;2023-12-29T02:20:01;2.90;;;0.80;;
20391;SDS011;10355;53.688;10.078;2023-12-29T02:22:44;4.55;;;1.02;;
20391;SDS011;10355;53.688;10.078;2023-12-29T02:25:28;6.22;;;1.15;;
20391;SDS011;10355;53.688;10.078;2023-12-29T02:28:12;4.57;;;0.98;;
20391;SDS011;10355;53.688;10.078;2023-12-29T02:30:59;3.92;;;0.90;;
20391;SDS011;10355;53.688;10.078;2023-12-29T02:33:44;7.32;;;0.85;;
20391;SDS011;10355;53.688;10.078;2023-12-29T02:36:27;2.72;;;0.98;;
20391;SDS011;10355;53.688;10.078;2023-12-29T02:39:10;4.88;;;1.00;;
20391;SDS011;10355;53.688;10.078;2023-12-29T02:41:54;6.18;;;1.40;;
20391;SDS011;10355;53.688;10.078;2023-12-29T02:44:37;6.63;;;1.08;;
20391;SDS011;10355;53.688;10.078;2023-12-29T02:47:20;1.48;;;0.70;;
20391;SDS011;10355;53.688;10.078;2023-12-29T02:50:04;6.82;;;1.00;;
20391;SDS011;10355;53.688;10.078;2023-12-29T02:52:47;5.65;;;1.25;;
20391;SDS011;10355;53.688;10.078;2023-12-29T02:55:30;4.15;;;1.15;;
20391;SDS011;10355;53.688;10.078;2023-12-29T02:58:14;3.53;;;0.90;;
20391;SDS011;10355;53.688;10.078;2023-12-29T03:00:56;6.07;;;1.10;;
20391;SDS011;10355;53.688;10.078;2023-12-29T03:03:39;1.55;;;0.88;;
20391;SDS011;10355;53.688;10.078;2023-12-29T03:06:22;4.20;;;0.98;;
20391;SDS011;10355;53.688;10.078;2023-12-29T03:09:06;4.30;;;1.08;;
20391;SDS011;10355;53.688;10.078;2023-12-29T03:11:49;2.97;;;1.15;;
20391;SDS011;10355;53.688;10.078;2023-12-29T03:14:33;4.13;;;0.95;;
20391;SDS011;10355;53.688;10.078;2023-12-29T03:17:17;4.65;;;1.05;;
20391;SDS011;10355;53.688;10.078;2023-12-29T03:20:00;4.25;;;1.00;;
20391;SDS011;10355;53.688;10.078;2023-12-29T03:22:43;2.95;;;0.90;;
20391;SDS011;10355;53.688;10.078;2023-12-29T03:25:26;3.67;;;0.98;;
20391;SDS011;10355;53.688;10.078;2023-12-29T03:28:09;4.55;;;1.00;;
20391;SDS011;10355;53.688;10.078;2023-12-29T03:30:53;4.22;;;0.82;;
20391;SDS011;10355;53.688;10.078;2023-12-29T03:33:36;3.60;;;0.95;;
20391;SDS011;10355;53.688;10.078;2023-12-29T03:36:19;1.27;;;0.68;;
20391;SDS011;10355;53.688;10.078;2023-12-29T03:39:02;3.75;;;0.70;;
20391;SDS011;10355;53.688;10.078;2023-12-29T03:41:45;1.92;;;0.70;;
20391;SDS011;10355;53.688;10.078;2023-12-29T03:44:28;1.77;;;0.57;;
20391;SDS011;10355;53.688;10.078;2023-12-29T03:47:12;3.72;;;0.98;;
20391;SDS011;10355;53.688;10.078;2023-12-29T03:49:54;2.13;;;0.70;;
20391;SDS011;10355;53.688;10.078;2023-12-29T03:52:37;5.07;;;0.93;;
20391;SDS011;10355;53.688;10.078;2023-12-29T03:55:20;4.43;;;0.88;;
20391;SDS011;10355;53.688;10.078;2023-12-29T03:58:03;3.10;;;0.85;;
20391;SDS011;10355;53.688;10.078;2023-12-29T04:00:46;2.00;;;0.60;;
20391;SDS011;10355;53.688;10.078;2023-12-29T04:03:30;3.70;;;0.70;;
20391;SDS011;10355;53.688;10.078;2023-12-29T04:06:13;2.17;;;0.55;;
20391;SDS011;10355;53.688;10.078;2023-12-29T04:08:56;0.82;;;0.57;;
20391;SDS011;10355;53.688;10.078;2023-12-29T04:11:38;2.92;;;0.90;;
20391;SDS011;10355;53.688;10.078;2023-12-29T04:14:21;3.63;;;0.80;;
20391;SDS011;10355;53.688;10.078;2023-12-29T04:17:04;1.33;;;0.50;;
20391;SDS011;10355;53.688;10.078;2023-12-29T04:19:56;2.63;;;0.75;;
20391;SDS011;10355;53.688;10.078;2023-12-29T04:22:39;1.77;;;0.70;;
20391;SDS011;10355;53.688;10.078;2023-12-29T04:25:22;2.05;;;0.65;;
20391;SDS011;10355;53.688;10.078;2023-12-29T04:28:06;2.38;;;0.63;;
20391;SDS011;10355;53.688;10.078;2023-12-29T04:30:49;2.42;;;0.50;;
20391;SDS011;10355;53.688;10.078;2023-12-29T04:33:32;3.85;;;0.50;;
20391;SDS011;10355;53.688;10.078;2023-12-29T04:36:16;1.70;;;0.40;;
20391;SDS011;10355;53.688;10.078;2023-12-29T04:38:59;1.63;;;0.50;;
20391;SDS011;10355;53.688;10.078;2023-12-29T04:41:42;1.00;;;0.60;;
20391;SDS011;10355;53.688;10.078;2023-12-29T04:44:24;1.00;;;0.50;;
20391;SDS011;10355;53.688;10.078;2023-12-29T04:47:07;1.13;;;0.40;;
20391;SDS011;10355;53.688;10.078;2023-12-29T04:49:50;1.52;;;0.40;;
20391;SDS011;10355;53.688;10.078;2023-12-29T04:52:35;0.45;;;0.30;;
20391;SDS011;10355;53.688;10.078;2023-12-29T04:55:18;1.27;;;0.35;;
20391;SDS011;10355;53.688;10.078;2023-12-29T04:58:01;0.82;;;0.50;;
20391;SDS011;10355;53.688;10.078;2023-12-29T05:00:45;1.05;;;0.40;;
20391;SDS011;10355;53.688;10.078;2023-12-29T05:03:28;1.65;;;0.45;;
20391;SDS011;10355;53.688;10.078;2023-12-29T05:06:11;2.05;;;0.57;;
20391;SDS011;10355;53.688;10.078;2023-12-29T05:08:55;1.02;;;0.40;;
20391;SDS011;10355;53.688;10.078;2023-12-29T05:11:38;1.90;;;0.60;;
20391;SDS011;10355;53.688;10.078;2023-12-29T05:14:21;1.85;;;0.40;;
20391;SDS011;10355;53.688;10.078;2023-12-29T05:17:04;1.23;;;0.30;;
20391;SDS011;10355;53.688;10.078;2023-12-29T05:19:46;3.25;;;0.60;;
20391;SDS011;10355;53.688;10.078;2023-12-29T05:22:29;4.68;;;0.43;;
20391;SDS011;10355;53.688;10.078;2023-12-29T05:25:14;1.25;;;0.50;;
20391;SDS011;10355;53.688;10.078;2023-12-29T05:27:56;3.08;;;0.80;;
20391;SDS011;10355;53.688;10.078;2023-12-29T05:30:40;4.43;;;0.73;;
20391;SDS011;10355;53.688;10.078;2023-12-29T05:33:23;1.90;;;0.50;;
20391;SDS011;10355;53.688;10.078;2023-12-29T05:36:06;4.22;;;0.80;;
20391;SDS011;10355;53.688;10.078;2023-12-29T05:38:49;2.40;;;0.55;;
20391;SDS011;10355;53.688;10.078;2023-12-29T05:41:33;3.97;;;0.60;;
20391;SDS011;10355;53.688;10.078;2023-12-29T05:44:16;3.22;;;0.60;;
20391;SDS011;10355;53.688;10.078;2023-12-29T05:46:59;1.95;;;0.70;;
20391;SDS011;10355;53.688;10.078;2023-12-29T05:49:42;2.53;;;0.57;;
20391;SDS011;10355;53.688;10.078;2023-12-29T05:52:25;1.90;;;0.68;;
20391;SDS011;10355;53.688;10.078;2023-12-29T05:55:08;2.28;;;0.60;;
20391;SDS011;10355;53.688;10.078;2023-12-29T05:57:52;3.20;;;0.65;;
20391;SDS011;10355;53.688;10.078;2023-12-29T06:00:36;5.22;;;0.75;;
20391;SDS011;10355;53.688;10.078;2023-12-29T06:03:19;3.03;;;0.75;;
20391;SDS011;10355;53.688;10.078;2023-12-29T06:06:02;2.38;;;0.70;;
20391;SDS011;10355;53.688;10.078;2023-12-29T06:08:45;3.85;;;0.80;;
20391;SDS011;10355;53.688;10.078;2023-12-29T06:11:28;4.60;;;0.90;;
20391;SDS011;10355;53.688;10.078;2023-12-29T06:14:12;3.60;;;0.65;;
20391;SDS011;10355;53.688;10.078;2023-12-29T06:16:57;2.72;;;0.73;;
20391;SDS011;10355;53.688;10.078;2023-12-29T06:19:40;1.92;;;0.63;;
20391;SDS011;10355;53.688;10.078;2023-12-29T06:22:23;1.65;;;0.60;;
20391;SDS011;10355;53.688;10.078;2023-12-29T06:25:08;4.72;;;1.15;;
20391;SDS011;10355;53.688;10.078;2023-12-29T06:27:51;2.03;;;0.68;;
20391;SDS011;10355;53.688;10.078;2023-12-29T06:30:35;3.97;;;0.82;;
20391;SDS011;10355;53.688;10.078;2023-12-29T06:33:18;3.40;;;0.95;;
20391;SDS011;10355;53.688;10.078;2023-12-29T06:36:02;2.90;;;0.63;;
20391;SDS011;10355;53.688;10.078;2023-12-29T06:38:45;3.35;;;0.80;;
20391;SDS011;10355;53.688;10.078;2023-12-29T06:41:30;3.00;;;0.98;;
20391;SDS011;10355;53.688;10.078;2023-12-29T06:44:13;3.08;;;0.90;;
20391;SDS011;10355;53.688;10.078;2023-12-29T06:46:57;2.05;;;0.75;;
20391;SDS011;10355;53.688;10.078;2023-12-29T06:49:40;1.60;;;0.60;;
20391;SDS011;10355;53.688;10.078;2023-12-29T06:52:23;3.42;;;0.90;;
20391;SDS011;10355;53.688;10.078;2023-12-29T06:55:07;4.97;;;0.70;;
20391;SDS011;10355;53.688;10.078;2023-12-29T06:57:51;5.78;;;0.85;;
20391;SDS011;10355;53.688;10.078;2023-12-29T07:00:35;4.90;;;0.70;;
20391;SDS011;10355;53.688;10.078;2023-12-29T07:03:19;4.60;;;0.95;;
20391;SDS011;10355;53.688;10.078;2023-12-29T07:06:02;3.78;;;0.98;;
20391;SDS011;10355;53.688;10.078;2023-12-29T07:08:45;4.75;;;1.02;;
20391;SDS011;10355;53.688;10.078;2023-12-29T07:11:28;2.33;;;0.82;;
20391;SDS011;10355;53.688;10.078;2023-12-29T07:14:11;7.35;;;1.23;;
20391;SDS011;10355;53.688;10.078;2023-12-29T07:16:54;2.03;;;0.80;;
20391;SDS011;10355;53.688;10.078;2023-12-29T07:19:38;6.57;;;0.90;;
20391;SDS011;10355;53.688;10.078;2023-12-29T07:22:21;7.78;;;1.15;;
20391;SDS011;10355;53.688;10.078;2023-12-29T07:25:04;8.30;;;1.30;;
20391;SDS011;10355;53.688;10.078;2023-12-29T07:27:47;7.93;;;1.45;;
20391;SDS011;10355;53.688;10.078;2023-12-29T07:30:30;6.03;;;1.38;;
20391;SDS011;10355;53.688;10.078;2023-12-29T07:33:13;5.95;;;1.20;;
20391;SDS011;10355;53.688;10.078;2023-12-29T07:35:57;5.30;;;1.13;;
20391;SDS011;10355;53.688;10.078;2023-12-29T07:38:40;4.75;;;1.20;;
20391;SDS011;10355;53.688;10.078;2023-12-29T07:41:23;6.15;;;1.40;;
20391;SDS011;10355;53.688;10.078;2023-12-29T07:44:06;6.47;;;1.10;;
20391;SDS011;10355;53.688;10.078;2023-12-29T07:46:49;6.20;;;1.00;;
20391;SDS011;10355;53.688;10.078;2023-12-29T07:49:32;5.93;;;1.25;;
20391;SDS011;10355;53.688;10.078;2023-12-29T07:52:16;5.38;;;1.00;;
20391;SDS011;10355;53.688;10.078;2023-12-29T07:54:59;4.28;;;0.88;;
20391;SDS011;10355;53.688;10.078;2023-12-29T07:57:42;5.78;;;1.10;;
20391;SDS011;10355;53.688;10.078;2023-12-29T08:00:25;6.72;;;1.25;;
20391;SDS011;10355;53.688;10.078;2023-12-29T08:03:09;5.10;;;1.10;;
20391;SDS011;10355;53.688;10.078;2023-12-29T08:05:51;6.22;;;1.45;;
20391;SDS011;10355;53.688;10.078;2023-12-29T08:08:35;10.05;;;1.63;;
20391;SDS011;10355;53.688;10.078;2023-12-29T08:11:18;5.75;;;1.20;;
20391;SDS011;10355;53.688;10.078;2023-12-29T08:14:01;5.95;;;1.50;;
20391;SDS011;10355;53.688;10.078;2023-12-29T08:16:44;4.20;;;1.20;;
20391;SDS011;10355;53.688;10.078;2023-12-29T08:19:27;9.43;;;2.05;;
20391;SDS011;10355;53.688;10.078;2023-12-29T08:22:10;8.95;;;1.48;;
20391;SDS011;10355;53.688;10.078;2023-12-29T08:24:55;7.60;;;1.25;;
20391;SDS011;10355;53.688;10.078;2023-12-29T08:27:37;5.95;;;1.40;;
20391;SDS011;10355;53.688;10.078;2023-12-29T08:30:20;7.55;;;1.30;;
20391;SDS011;10355;53.688;10.078;2023-12-29T08:33:03;7.97;;;1.38;;
20391;SDS011;10355;53.688;10.078;2023-12-29T08:35:46;9.00;;;1.50;;
20391;SDS011;10355;53.688;10.078;2023-12-29T08:38:29;8.85;;;1.50;;
20391;SDS011;10355;53.688;10.078;2023-12-29T08:41:14;5.80;;;1.15;;
20391;SDS011;10355;53.688;10.078;2023-12-29T08:44:00;5.10;;;1.10;;
20391;SDS011;10355;53.688;10.078;2023-12-29T08:46:42;8.23;;;1.20;;
20391;SDS011;10355;53.688;10.078;2023-12-29T08:49:25;8.50;;;1.60;;
20391;SDS011;10355;53.688;10.078;2023-12-29T08:52:08;7.50;;;1.15;;
20391;SDS011;10355;53.688;10.078;2023-12-29T08:54:51;6.40;;;1.30;;
20391;SDS011;10355;53.688;10.078;2023-12-29T08:57:35;6.53;;;1.08;;
20391;SDS011;10355;53.688;10.078;2023-12-29T09:00:18;7.70;;;1.42;;
20391;SDS011;10355;53.688;10.078;2023-12-29T09:03:01;4.00;;;1.05;;
20391;SDS011;10355;53.688;10.078;2023-12-29T09:05:44;2.45;;;0.90;;
20391;SDS011;10355;53.688;10.078;2023-12-29T09:08:26;8.77;;;1.02;;
20391;SDS011;10355;53.688;10.078;2023-12-29T09:11:09;6.00;;;1.02;;
20391;SDS011;10355;53.688;10.078;2023-12-29T09:13:56;1.42;;;0.60;;
20391;SDS011;10355;53.688;10.078;2023-12-29T09:16:38;2.42;;;0.70;;
20391;SDS011;10355;53.688;10.078;2023-12-29T09:19:25;3.47;;;0.80;;
20391;SDS011;10355;53.688;10.078;2023-12-29T09:22:19;3.38;;;0.73;;
20391;SDS011;10355;53.688;10.078;2023-12-29T09:25:02;4.72;;;1.00;;
20391;SDS011;10355;53.688;10.078;2023-12-29T09:27:45;5.72;;;0.60;;
20391;SDS011;10355;53.688;10.078;2023-12-29T09:30:32;1.63;;;0.50;;
20391;SDS011;10355;53.688;10.078;2023-12-29T09:33:15;2.38;;;0.50;;
20391;SDS011;10355;53.688;10.078;2023-12-29T09:35:58;1.52;;;0.45;;
20391;SDS011;10355;53.688;10.078;2023-12-29T09:38:41;1.55;;;0.47;;
20391;SDS011;10355;53.688;10.078;2023-12-29T09:41:27;1.92;;;0.50;;
20391;SDS011;10355;53.688;10.078;2023-12-29T09:44:12;2.70;;;0.60;;
20391;SDS011;10355;53.688;10.078;2023-12-29T09:46:57;2.58;;;0.60;;
20391;SDS011;10355;53.688;10.078;2023-12-29T09:49:42;2.78;;;0.45;;
20391;SDS011;10355;53.688;10.078;2023-12-29T09:52:26;1.67;;;0.60;;
20391;SDS011;10355;53.688;10.078;2023-12-29T09:55:09;2.75;;;0.60;;
20391;SDS011;10355;53.688;10.078;2023-12-29T09:57:52;1.70;;;0.73;;
20391;SDS011;10355;53.688;10.078;2023-12-29T10:00:35;2.05;;;0.60;;
20391;SDS011;10355;53.688;10.078;2023-12-29T10:03:19;2.47;;;0.50;;
20391;SDS011;10355;53.688;10.078;2023-12-29T10:06:03;2.58;;;0.80;;
20391;SDS011;10355;53.688;10.078;2023-12-29T10:08:49;2.65;;;0.75;;
20391;SDS011;10355;53.688;10.078;2023-12-29T10:11:34;4.25;;;0.75;;
20391;SDS011;10355;53.688;10.078;2023-12-29T10:14:20;3.65;;;0.80;;
20391;SDS011;10355;53.688;10.078;2023-12-29T10:17:06;4.22;;;0.95;;
20391;SDS011;10355;53.688;10.078;2023-12-29T10:19:56;3.42;;;0.95;;
20391;SDS011;10355;53.688;10.078;2023-12-29T10:22:43;5.20;;;1.08;;
20391;SDS011;10355;53.688;10.078;2023-12-29T10:25:27;5.60;;;1.17;;
20391;SDS011;10355;53.688;10.078;2023-12-29T10:28:10;6.78;;;0.90;;
20391;SDS011;10355;53.688;10.078;2023-12-29T10:30:54;3.97;;;0.95;;
20391;SDS011;10355;53.688;10.078;2023-12-29T10:33:36;7.63;;;1.02;;
20391;SDS011;10355;53.688;10.078;2023-12-29T10:36:21;4.97;;;1.10;;
20391;SDS011;10355;53.688;10.078;2023-12-29T10:39:05;7.88;;;1.10;;
20391;SDS011;10355;53.688;10.078;2023-12-29T10:41:48;6.53;;;1.25;;
20391;SDS011;10355;53.688;10.078;2023-12-29T10:44:31;4.68;;;1.20;;
20391;SDS011;10355;53.688;10.078;2023-12-29T10:47:14;4.60;;;1.42;;
20391;SDS011;10355;53.688;10.078;2023-12-29T10:49:58;6.28;;;1.33;;
20391;SDS011;10355;53.688;10.078;2023-12-29T10:52:42;6.53;;;1.23;;
20391;SDS011;10355;53.688;10.078;2023-12-29T10:55:26;7.55;;;1.60;;
20391;SDS011;10355;53.688;10.078;2023-12-29T10:58:08;6.28;;;1.10;;
20391;SDS011;10355;53.688;10.078;2023-12-29T11:00:51;4.90;;;1.45;;
20391;SDS011;10355;53.688;10.078;2023-12-29T11:03:34;6.25;;;1.40;;
20391;SDS011;10355;53.688;10.078;2023-12-29T11:06:17;6.75;;;1.38;;
20391;SDS011;10355;53.688;10.078;2023-12-29T11:09:01;6.70;;;1.05;;
20391;SDS011;10355;53.688;10.078;2023-12-29T11:11:44;6.80;;;1.25;;
20391;SDS011;10355;53.688;10.078;2023-12-29T11:14:27;5.85;;;1.17;;
20391;SDS011;10355;53.688;10.078;2023-12-29T11:17:10;8.15;;;1.30;;
20391;SDS011;10355;53.688;10.078;2023-12-29T11:19:54;5.63;;;1.40;;
20391;SDS011;10355;53.688;10.078;2023-12-29T11:22:38;5.18;;;1.30;;
20391;SDS011;10355;53.688;10.078;2023-12-29T11:25:22;6.40;;;1.33;;
20391;SDS011;10355;53.688;10.078;2023-12-29T11:28:05;5.53;;;1.10;;
20391;SDS011;10355;53.688;10.078;2023-12-29T11:30:49;3.50;;;0.75;;
20391;SDS011;10355;53.688;10.078;2023-12-29T11:33:34;4.85;;;1.23;;
20391;SDS011;10355;53.688;10.078;2023-12-29T11:36:22;7.55;;;1.35;;
20391;SDS011;10355;53.688;10.078;2023-12-29T11:39:15;9.25;;;1.15;;
20391;SDS011;10355;53.688;10.078;2023-12-29T11:42:02;5.45;;;1.25;;
20391;SDS011;10355;53.688;10.078;2023-12-29T11:44:47;5.25;;;0.95;;
20391;SDS011;10355;53.688;10.078;2023-12-29T11:47:36;5.18;;;1.02;;
20391;SDS011;10355;53.688;10.078;2023-12-29T11:50:26;4.30;;;1.00;;
20391;SDS011;10355;53.688;10.078;2023-12-29T11:53:09;4.82;;;0.95;;
20391;SDS011;10355;53.688;10.078;2023-12-29T11:56:14;9.40;;;1.00;;
20391;SDS011;10355;53.688;10.078;2023-12-29T11:59:02;4.80;;;0.98;;
20391;SDS011;10355;53.688;10.078;2023-12-29T12:01:55;4.80;;;1.00;;
20391;SDS011;10355;53.688;10.078;2023-12-29T12:04:38;3.80;;;1.27;;
20391;SDS011;10355;53.688;10.078;2023-12-29T12:10:30;6.50;;;1.10;;
20391;SDS011;10355;53.688;10.078;2023-12-29T12:13:21;4.22;;;1.08;;
20391;SDS011;10355;53.688;10.078;2023-12-29T12:19:27;5.20;;;1.02;;
20391;SDS011;10355;53.688;10.078;2023-12-29T12:22:16;4.68;;;1.02;;
20391;SDS011;10355;53.688;10.078;2023-12-29T12:25:00;6.22;;;1.02;;
20391;SDS011;10355;53.688;10.078;2023-12-29T12:27:44;3.67;;;1.27;;
20391;SDS011;10355;53.688;10.078;2023-12-29T12:30:26;5.22;;;1.10;;
20391;SDS011;10355;53.688;10.078;2023-12-29T12:33:09;4.47;;;1.10;;
20391;SDS011;10355;53.688;10.078;2023-12-29T12:36:00;5.10;;;1.13;;
20391;SDS011;10355;53.688;10.078;2023-12-29T12:38:50;4.53;;;0.80;;
20391;SDS011;10355;53.688;10.078;2023-12-29T12:41:33;4.78;;;1.30;;
20391;SDS011;10355;53.688;10.078;2023-12-29T12:44:16;6.82;;;1.17;;
20391;SDS011;10355;53.688;10.078;2023-12-29T12:46:59;5.65;;;1.15;;
20391;SDS011;10355;53.688;10.078;2023-12-29T12:49:43;4.75;;;1.15;;
20391;SDS011;10355;53.688;10.078;2023-12-29T12:52:31;3.25;;;0.88;;
20391;SDS011;10355;53.688;10.078;2023-12-29T12:55:14;6.10;;;1.30;;
20391;SDS011;10355;53.688;10.078;2023-12-29T12:57:58;5.72;;;1.13;;
20391;SDS011;10355;53.688;10.078;2023-12-29T13:00:40;5.90;;;1.05;;
20391;SDS011;10355;53.688;10.078;2023-12-29T13:03:24;4.05;;;0.95;;
20391;SDS011;10355;53.688;10.078;2023-12-29T13:06:07;6.88;;;1.10;;
20391;SDS011;10355;53.688;10.078;2023-12-29T13:08:51;5.03;;;1.23;;
20391;SDS011;10355;53.688;10.078;2023-12-29T13:11:35;7.28;;;1.15;;
20391;SDS011;10355;53.688;10.078;2023-12-29T13:14:21;4.18;;;0.80;;
20391;SDS011;10355;53.688;10.078;2023-12-29T13:17:05;5.82;;;1.23;;
20391;SDS011;10355;53.688;10.078;2023-12-29T13:19:54;4.82;;;1.10;;
20391;SDS011;10355;53.688;10.078;2023-12-29T13:22:38;7.25;;;1.27;;
20391;SDS011;10355;53.688;10.078;2023-12-29T13:25:24;3.58;;;1.08;;
20391;SDS011;10355;53.688;10.078;2023-12-29T13:28:07;2.83;;;0.95;;
20391;SDS011;10355;53.688;10.078;2023-12-29T13:30:50;4.53;;;1.13;;
20391;SDS011;10355;53.688;10.078;2023-12-29T13:33:34;4.22;;;1.05;;
20391;SDS011;10355;53.688;10.078;2023-12-29T13:36:21;4.32;;;0.98;;
20391;SDS011;10355;53.688;10.078;2023-12-29T13:39:06;7.57;;;1.00;;
20391;SDS011;10355;53.688;10.078;2023-12-29T13:41:54;7.32;;;1.15;;
20391;SDS011;10355;53.688;10.078;2023-12-29T13:44:37;4.47;;;1.00;;
20391;SDS011;10355;53.688;10.078;2023-12-29T13:47:21;3.63;;;0.77;;
20391;SDS011;10355;53.688;10.078;2023-12-29T13:50:05;5.10;;;1.05;;
20391;SDS011;10355;53.688;10.078;2023-12-29T13:52:49;7.00;;;1.50;;
20391;SDS011;10355;53.688;10.078;2023-12-29T13:55:32;3.95;;;1.08;;
20391;SDS011;10355;53.688;10.078;2023-12-29T13:58:16;4.53;;;1.17;;
20391;SDS011;10355;53.688;10.078;2023-12-29T14:01:00;3.88;;;1.15;;
20391;SDS011;10355;53.688;10.078;2023-12-29T14:03:45;5.95;;;1.38;;
20391;SDS011;10355;53.688;10.078;2023-12-29T14:06:29;5.50;;;1.02;;
20391;SDS011;10355;53.688;10.078;2023-12-29T14:09:14;7.65;;;1.00;;
20391;SDS011;10355;53.688;10.078;2023-12-29T14:11:58;7.50;;;1.00;;
20391;SDS011;10355;53.688;10.078;2023-12-29T14:14:42;6.15;;;1.20;;
20391;SDS011;10355;53.688;10.078;2023-12-29T14:17:24;4.78;;;1.00;;
20391;SDS011;10355;53.688;10.078;2023-12-29T14:20:09;4.45;;;1.40;;
20391;SDS011;10355;53.688;10.078;2023-12-29T14:23:00;7.72;;;1.33;;
20391;SDS011;10355;53.688;10.078;2023-12-29T14:25:43;5.53;;;1.05;;
20391;SDS011;10355;53.688;10.078;2023-12-29T14:28:28;4.85;;;1.02;;
20391;SDS011;10355;53.688;10.078;2023-12-29T14:31:12;5.10;;;1.10;;
20391;SDS011;10355;53.688;10.078;2023-12-29T14:33:55;4.05;;;1.30;;
20391;SDS011;10355;53.688;10.078;2023-12-29T14:36:38;3.53;;;1.00;;
20391;SDS011;10355;53.688;10.078;2023-12-29T14:39:21;6.47;;;1.15;;
20391;SDS011;10355;53.688;10.078;2023-12-29T14:42:05;5.38;;;1.17;;
20391;SDS011;10355;53.688;10.078;2023-12-29T14:44:48;6.80;;;1.23;;
20391;SDS011;10355;53.688;10.078;2023-12-29T14:47:32;4.53;;;0.95;;
20391;SDS011;10355;53.688;10.078;2023-12-29T14:50:15;4.85;;;1.17;;
20391;SDS011;10355;53.688;10.078;2023-12-29T14:52:58;1.98;;;0.70;;
20391;SDS011;10355;53.688;10.078;2023-12-29T14:55:40;6.70;;;1.45;;
20391;SDS011;10355;53.688;10.078;2023-12-29T14:58:23;6.05;;;0.98;;
20391;SDS011;10355;53.688;10.078;2023-12-29T15:01:06;3.70;;;0.93;;
20391;SDS011;10355;53.688;10.078;2023-12-29T15:03:50;7.47;;;1.20;;
20391;SDS011;10355;53.688;10.078;2023-12-29T15:06:33;4.43;;;1.10;;
20391;SDS011;10355;53.688;10.078;2023-12-29T15:09:16;6.75;;;1.27;;
20391;SDS011;10355;53.688;10.078;2023-12-29T15:11:59;6.15;;;1.30;;
20391;SDS011;10355;53.688;10.078;2023-12-29T15:14:42;6.07;;;1.20;;
20391;SDS011;10355;53.688;10.078;2023-12-29T15:17:24;6.80;;;1.10;;
20391;SDS011;10355;53.688;10.078;2023-12-29T15:20:09;4.60;;;1.13;;
20391;SDS011;10355;53.688;10.078;2023-12-29T15:22:52;4.43;;;1.13;;
20391;SDS011;10355;53.688;10.078;2023-12-29T15:25:36;6.13;;;1.30;;
20391;SDS011;10355;53.688;10.078;2023-12-29T15:28:19;3.65;;;0.90;;
20391;SDS011;10355;53.688;10.078;2023-12-29T15:31:03;4.53;;;1.10;;
20391;SDS011;10355;53.688;10.078;2023-12-29T15:33:46;5.22;;;1.00;;
20391;SDS011;10355;53.688;10.078;2023-12-29T15:36:31;5.80;;;1.20;;
20391;SDS011;10355;53.688;10.078;2023-12-29T15:39:13;3.33;;;0.80;;
20391;SDS011;10355;53.688;10.078;2023-12-29T15:42:00;4.03;;;1.05;;
20391;SDS011;10355;53.688;10.078;2023-12-29T15:44:42;6.93;;;1.00;;
20391;SDS011;10355;53.688;10.078;2023-12-29T15:47:26;5.30;;;1.23;;
20391;SDS011;10355;53.688;10.078;2023-12-29T15:50:09;4.43;;;1.25;;
20391;SDS011;10355;53.688;10.078;2023-12-29T15:52:53;4.40;;;0.95;;
20391;SDS011;10355;53.688;10.078;2023-12-29T15:55:36;6.28;;;1.40;;
20391;SDS011;10355;53.688;10.078;2023-12-29T15:58:21;3.90;;;0.90;;
20391;SDS011;10355;53.688;10.078;2023-12-29T16:01:04;4.30;;;1.00;;
20391;SDS011;10355;53.688;10.078;2023-12-29T16:03:47;4.55;;;1.27;;
20391;SDS011;10355;53.688;10.078;2023-12-29T16:06:30;5.78;;;1.10;;
20391;SDS011;10355;53.688;10.078;2023-12-29T16:09:14;8.73;;;1.10;;
20391;SDS011;10355;53.688;10.078;2023-12-29T16:11:57;4.65;;;1.05;;
20391;SDS011;10355;53.688;10.078;2023-12-29T16:14:40;4.93;;;1.30;;
20391;SDS011;10355;53.688;10.078;2023-12-29T16:17:22;5.53;;;1.13;;